Time;durP1;ratioP1;P1;durP2;ratioP2;P2;SDS_P1;SDS_P2;PMS_P1;PMS_P2;Temp;Humidity;BMP_temperature;BMP_pressure;BME280_temperature;BME280_humidity;BME280_pressure;Samples;Min_cycle;Max_cycle;Signal;HPM_P1;HPM_P2
2021/12/15 00:00:06;;;;;;;50.00;14.43;;;;;;;7.69;100.00;101537.63;4979372;28;20042;-64
2021/12/15 00:02:31;;;;;;;47.50;15.70;;;;;;;7.70;100.00;101534.09;4975209;28;20077;-64
2021/12/15 00:04:57;;;;;;;45.15;12.63;;;;;;;7.68;100.00;101534.09;4976585;28;20502;-64
2021/12/15 00:07:26;;;;;;;45.72;13.98;;;;;;;7.68;100.00;101546.44;4972510;28;20033;-64
2021/12/15 00:09:51;;;;;;;41.25;13.20;;;;;;;7.67;100.00;101529.69;4973270;28;20031;-64
2021/12/15 00:12:18;;;;;;;50.60;14.95;;;;;;;7.73;100.00;101535.00;4975753;28;20117;-64
2021/12/15 00:14:47;;;;;;;44.85;14.07;;;;;;;7.73;100.00;101535.00;4976677;28;20047;-64
2021/12/15 00:17:13;;;;;;;52.70;14.32;;;;;;;7.74;100.00;101542.06;4971961;28;20030;-64
2021/12/15 00:19:39;;;;;;;59.50;14.90;;;;;;;7.67;100.00;101524.41;4989754;28;20030;-64
2021/12/15 00:22:05;;;;;;;47.33;13.70;;;;;;;7.77;100.00;101536.78;4991310;28;20045;-64
2021/12/15 00:24:31;;;;;;;54.28;15.20;;;;;;;7.75;100.00;101543.84;4983264;28;20089;-64
2021/12/15 00:26:57;;;;;;;47.65;14.73;;;;;;;7.73;100.00;101544.69;4991106;28;20049;-64
2021/12/15 00:29:24;;;;;;;38.90;12.90;;;;;;;7.70;100.00;101539.41;4991293;28;20050;-64
2021/12/15 00:31:50;;;;;;;48.67;15.43;;;;;;;7.70;100.00;101539.41;4984288;28;20030;-64
2021/12/15 00:34:17;;;;;;;39.95;13.52;;;;;;;7.72;100.00;101541.19;5010577;28;20038;-64
2021/12/15 00:36:47;;;;;;;59.53;16.52;;;;;;;7.71;100.00;101542.03;5000953;28;20046;-64
2021/12/15 00:39:17;;;;;;;43.05;13.63;;;;;;;7.71;100.00;101542.03;4992262;28;20042;-64
2021/12/15 00:41:43;;;;;;;49.55;13.32;;;;;;;7.69;100.00;101527.03;5006697;28;20330;-64
2021/12/15 00:44:10;;;;;;;49.40;15.95;;;;;;;7.64;100.00;101528.78;5011749;28;20083;-64
2021/12/15 00:46:36;;;;;;;55.45;15.80;;;;;;;7.65;100.00;101528.78;4989045;28;20063;-65
2021/12/15 00:49:03;;;;;;;49.20;13.90;;;;;;;7.67;100.00;101529.69;4976144;28;20057;-65
2021/12/15 00:51:28;;;;;;;45.97;13.35;;;;;;;7.69;100.00;101524.41;4971878;28;20035;-65
2021/12/15 00:53:54;;;;;;;46.42;13.57;;;;;;;7.74;100.00;101534.09;4972747;28;20138;-65
2021/12/15 00:56:20;;;;;;;41.17;14.00;;;;;;;7.75;100.00;101535.91;4983111;28;20478;-65
2021/12/15 00:58:45;;;;;;;34.58;11.80;;;;;;;7.80;100.00;101533.25;4990951;28;20034;-65
2021/12/15 01:01:11;;;;;;;37.53;12.10;;;;;;;7.87;100.00;101535.91;4981197;28;20034;-65
2021/12/15 01:03:37;;;;;;;32.78;12.52;;;;;;;7.84;100.00;101532.38;4991539;28;20662;-65
2021/12/15 01:06:08;;;;;;;34.60;12.05;;;;;;;7.85;100.00;101532.41;4991256;28;20022;-65
2021/12/15 01:08:40;;;;;;;39.95;12.77;;;;;;;7.79;100.00;101531.50;4990325;28;20030;-65
2021/12/15 01:11:23;;;;;;;31.42;12.68;;;;;;;7.74;100.00;101536.75;4989461;28;20037;-65
2021/12/15 01:22:48;;;;;;;34.92;12.43;;;;;;;7.78;100.00;101532.34;4981118;28;20125;-65
2021/12/15 01:25:22;;;;;;;37.33;11.93;;;;;;;7.78;100.00;101533.25;4974705;28;20047;-65
2021/12/15 01:27:50;;;;;;;40.83;13.43;;;;;;;7.80;100.00;101531.50;4971394;28;20109;-64
2021/12/15 01:30:19;;;;;;;37.95;11.77;;;;;;;7.78;100.00;101533.25;4976156;28;20023;-64
2021/12/15 01:32:44;;;;;;;36.45;13.38;;;;;;;7.80;100.00;101528.84;4985714;28;20039;-64
2021/12/15 01:35:11;;;;;;;35.70;10.80;;;;;;;7.80;100.00;101547.38;4976709;28;20061;-64
2021/12/15 01:37:37;;;;;;;30.45;11.25;;;;;;;7.77;100.00;101544.72;4982386;28;20085;-64
2021/12/15 01:40:04;;;;;;;31.92;11.13;;;;;;;7.79;100.00;101545.59;4990862;28;20027;-65
2021/12/15 01:42:32;;;;;;;27.20;9.85;;;;;;;7.79;100.00;101542.09;4981957;28;20435;-64
2021/12/15 01:47:45;;;;;;;28.92;10.15;;;;;;;7.80;100.00;101542.09;4971172;28;20434;-64
2021/12/15 01:50:13;;;;;;;34.60;11.30;;;;;;;7.79;100.00;101544.75;4971844;28;20027;-64
2021/12/15 01:52:41;;;;;;;43.03;11.63;;;;;;;7.73;100.00;101540.28;4989091;28;20022;-64
2021/12/15 01:55:11;;;;;;;39.17;12.07;;;;;;;7.83;100.00;101552.69;4990698;28;20441;-64
2021/12/15 01:57:38;;;;;;;30.13;9.98;;;;;;;7.93;100.00;101548.28;4980928;28;20042;-64
2021/12/15 02:00:21;;;;;;;35.95;12.88;;;;;;;7.86;100.00;101552.69;4990918;28;20026;-64
2021/12/15 02:02:49;;;;;;;35.92;11.52;;;;;;;7.80;100.00;101552.69;4989924;28;20038;-64
2021/12/15 02:05:15;;;;;;;28.95;11.57;;;;;;;7.81;100.00;101549.13;4991463;28;20034;-64
2021/12/15 02:07:43;;;;;;;32.83;11.18;;;;;;;7.79;100.00;101550.91;4979454;28;20038;-64
2021/12/15 02:10:10;;;;;;;37.00;12.13;;;;;;;7.86;100.00;101552.69;4971377;28;20445;-64
2021/12/15 02:12:40;;;;;;;37.00;11.48;;;;;;;7.84;100.00;101557.09;4971463;28;20023;-64
2021/12/15 02:15:17;;;;;;;29.58;11.85;;;;;;;7.81;100.00;101549.13;4972690;28;20616;-64
2021/12/15 02:17:44;;;;;;;33.25;11.52;;;;;;;7.79;100.00;101550.91;4983642;28;20014;-64
2021/12/15 02:20:12;;;;;;;33.70;12.60;;;;;;;7.80;100.00;101549.13;4989235;28;20045;-64
2021/12/15 02:22:38;;;;;;;36.20;11.60;;;;;;;7.78;100.00;101551.78;4986899;28;20022;-64
2021/12/15 02:25:07;;;;;;;38.72;13.77;;;;;;;7.74;100.00;101557.94;4979205;28;20032;-64
2021/12/15 02:27:35;;;;;;;32.58;11.45;;;;;;;7.69;100.00;101549.09;4994457;28;20026;-64
2021/12/15 02:30:18;;;;;;;38.65;14.40;;;;;;;7.70;100.00;101552.63;4991385;28;20034;-64
2021/12/15 02:38:00;;;;;;;43.55;13.60;;;;;;;7.64;100.00;101550.84;4995782;28;20041;-64
2021/12/15 02:40:25;;;;;;;44.75;13.55;;;;;;;7.63;100.00;101550.84;4993462;28;20026;-64
2021/12/15 02:42:51;;;;;;;50.58;15.13;;;;;;;7.60;100.00;101537.59;4994336;28;20041;-64
2021/12/15 02:45:24;;;;;;;46.05;14.93;;;;;;;7.64;100.00;101542.91;4990390;28;20033;-64
2021/12/15 02:47:51;;;;;;;40.13;12.25;;;;;;;7.67;100.00;101550.88;4993966;28;20029;-64
2021/12/15 02:50:22;;;;;;;54.88;14.85;;;;;;;7.72;100.00;101549.13;4993507;28;20026;-64
2021/12/15 02:52:48;;;;;;;47.95;15.13;;;;;;;7.79;100.00;101550.91;4994136;28;20026;-64
2021/12/15 02:55:14;;;;;;;42.88;13.48;;;;;;;7.79;100.00;101550.91;4984161;28;20462;-64
2021/12/15 02:57:40;;;;;;;50.10;14.70;;;;;;;7.78;100.00;101549.13;4978218;28;20101;-64
2021/12/15 03:00:42;;;;;;;43.03;13.25;;;;;;;7.75;100.00;101542.94;4975985;28;20042;-64
2021/12/15 03:05:31;;;;;;;59.42;15.38;;;;;;;7.77;100.00;101542.09;4974892;28;20029;-64
2021/12/15 03:08:14;;;;;;;45.22;13.30;;;;;;;7.72;100.00;101538.53;4998397;28;20058;-63
2021/12/15 03:16:12;;;;;;;;;;;;;;;7.76;100.00;101545.59;4983877;28;20058;-63
2021/12/15 03:18:37;;;;;;;45.30;13.65;;;;;;;7.70;100.00;101532.34;4975629;28;19910;-64
2021/12/15 03:21:10;;;;;;;48.17;13.93;;;;;;;7.75;100.00;101548.25;4977529;28;20034;-63
2021/12/15 03:23:51;;;;;;;44.97;15.07;;;;;;;7.73;100.00;101553.53;5009785;28;20035;-64
2021/12/15 03:26:21;;;;;;;40.08;13.82;;;;;;;7.71;100.00;101552.63;5009272;28;20108;-63
2021/12/15 03:35:06;;;;;;;42.40;14.68;;;;;;;7.76;100.00;101545.59;4991561;28;20125;-63
2021/12/15 03:37:26;;;;;;;40.42;14.15;;;;;;;7.75;100.00;101546.50;4974557;28;20129;-63
2021/12/15 03:40:08;;;;;;;39.83;14.55;;;;;;;7.78;100.00;101549.13;4972719;28;20125;-64
2021/12/15 03:42:45;;;;;;;38.25;13.38;;;;;;;7.79;100.00;101550.03;4982316;28;20057;-64
2021/12/15 03:45:16;;;;;;;36.60;12.20;;;;;;;7.68;100.00;101547.34;4993052;28;20046;-64
2021/12/15 03:47:45;;;;;;;40.08;13.20;;;;;;;7.72;100.00;101553.53;4992357;28;20085;-64
2021/12/15 03:50:15;;;;;;;39.53;13.18;;;;;;;7.75;100.00;101548.25;4993551;28;20038;-64
2021/12/15 03:52:41;;;;;;;34.13;11.45;;;;;;;7.69;100.00;101533.22;4986134;28;20030;-64
2021/12/15 03:55:09;;;;;;;37.85;13.77;;;;;;;7.76;100.00;101545.59;4972394;28;20109;-64
2021/12/15 03:57:34;;;;;;;28.95;11.65;;;;;;;7.77;100.00;101544.72;4975441;28;20442;-63
2021/12/15 04:00:00;;;;;;;31.60;11.88;;;;;;;7.76;100.00;101555.28;4992378;28;20105;-64
2021/12/15 04:02:26;;;;;;;35.63;11.48;;;;;;;7.75;100.00;101556.19;4992385;28;20705;-64
2021/12/15 04:04:52;;;;;;;33.00;12.73;;;;;;;7.66;100.00;101538.50;4984197;28;20073;-64
2021/12/15 04:07:20;;;;;;;34.33;12.30;;;;;;;7.75;100.00;101559.72;4991613;28;20105;-64
2021/12/15 04:09:48;;;;;;;35.67;13.73;;;;;;;7.76;100.00;101563.25;4983473;28;20447;-64
2021/12/15 04:12:14;;;;;;;33.38;11.35;;;;;;;7.75;100.00;101557.09;5011971;28;20029;-64
2021/12/15 04:14:54;;;;;;;33.03;12.30;;;;;;;7.85;100.00;101556.22;4991102;28;20383;-64
2021/12/15 04:17:26;;;;;;;41.05;14.45;;;;;;;7.93;100.00;101567.72;4990686;28;20030;-64
2021/12/15 04:19:57;;;;;;;36.85;13.43;;;;;;;7.92;100.00;101562.44;4992161;28;20030;-64
2021/12/15 04:22:24;;;;;;;32.28;12.38;;;;;;;7.86;100.00;101551.78;4982204;28;20034;-64
2021/12/15 04:24:50;;;;;;;37.83;15.00;;;;;;;7.85;100.00;101560.63;4993663;28;20022;-64
2021/12/15 04:27:16;;;;;;;39.80;14.05;;;;;;;7.87;100.00;101561.53;4988346;28;20038;-64
2021/12/15 04:29:44;;;;;;;36.53;13.43;;;;;;;7.85;100.00;101558.00;4980201;28;20019;-64
2021/12/15 04:32:17;;;;;;;45.13;15.63;;;;;;;7.88;100.00;101560.63;4971106;28;20114;-64
2021/12/15 04:34:42;;;;;;;36.60;13.23;;;;;;;7.84;100.00;101557.09;4982112;28;20549;-64
2021/12/15 04:37:08;;;;;;;36.97;12.90;;;;;;;7.83;100.00;101563.28;4991316;28;20032;-63
2021/12/15 04:39:34;;;;;;;41.00;15.30;;;;;;;7.86;100.00;101563.28;4991920;28;20113;-64
2021/12/15 04:42:00;;;;;;;32.97;12.63;;;;;;;7.92;100.00;101563.28;4987783;28;20451;-64
2021/12/15 04:44:29;;;;;;;37.38;12.93;;;;;;;7.85;100.00;101572.13;4993826;28;20030;-64
2021/12/15 04:47:01;;;;;;;47.05;13.60;;;;;;;7.77;100.00;101552.69;4999973;28;20089;-64
2021/12/15 04:49:31;;;;;;;37.55;12.70;;;;;;;7.82;100.00;101571.22;4975323;28;20027;-64
2021/12/15 04:51:57;;;;;;;44.67;14.00;;;;;;;7.84;100.00;101573.00;4971852;28;20340;-64
2021/12/15 04:54:23;;;;;;;36.67;14.45;;;;;;;7.82;100.00;101564.16;4980642;28;20033;-65
2021/12/15 04:56:49;;;;;;;39.65;13.93;;;;;;;7.90;100.00;101564.19;4991436;28;20026;-64
2021/12/15 04:59:15;;;;;;;37.45;14.02;;;;;;;7.86;100.00;101571.22;4991290;28;20089;-64
2021/12/15 05:01:41;;;;;;;37.05;13.60;;;;;;;7.83;100.00;101579.19;4989595;28;20113;-65
2021/12/15 05:04:07;;;;;;;39.63;13.30;;;;;;;7.82;100.00;101572.09;4977943;28;20030;-65
2021/12/15 05:06:32;;;;;;;41.22;12.57;;;;;;;7.82;100.00;101577.38;4971680;28;20019;-65
2021/12/15 05:08:59;;;;;;;36.63;12.43;;;;;;;7.85;100.00;101577.44;4977005;28;20049;-66
2021/12/15 05:11:24;;;;;;;37.47;11.80;;;;;;;7.88;100.00;101580.09;4972774;28;20085;-65
2021/12/15 05:13:50;;;;;;;36.45;13.02;;;;;;;7.92;100.00;101584.50;4973739;28;20022;-65
2021/12/15 05:16:16;;;;;;;35.67;13.52;;;;;;;7.86;100.00;101587.13;4983326;28;20065;-65
2021/12/15 05:18:43;;;;;;;38.67;14.43;;;;;;;7.90;100.00;101586.28;4990714;28;20028;-65
2021/12/15 05:21:10;;;;;;;37.05;14.98;;;;;;;7.93;100.00;101591.56;4988312;28;20452;-65
2021/12/15 05:23:37;;;;;;;41.55;14.27;;;;;;;7.93;100.00;101585.38;4990071;28;20440;-64
2021/12/15 05:26:03;;;;;;;36.47;14.43;;;;;;;7.87;100.00;101569.47;4990501;28;20030;-65
2021/12/15 05:28:30;;;;;;;34.50;14.75;;;;;;;7.96;100.00;101588.94;4984960;28;20497;-65
2021/12/15 05:30:57;;;;;;;37.22;14.82;;;;;;;7.90;100.00;101591.56;4987001;28;20026;-65
2021/12/15 05:33:25;;;;;;;44.88;16.00;;;;;;;7.91;100.00;101587.13;4988814;28;20026;-65
2021/12/15 05:35:52;;;;;;;40.38;15.27;;;;;;;7.89;100.00;101596.88;4983090;28;20022;-65
2021/12/15 05:38:18;;;;;;;38.65;14.65;;;;;;;7.88;100.00;101588.03;4990747;28;20478;-65
2021/12/15 05:40:45;;;;;;;49.40;15.00;;;;;;;7.97;100.00;101592.47;4991469;28;20031;-65
2021/12/15 05:43:11;;;;;;;43.85;14.05;;;;;;;7.95;100.00;101589.81;4987357;28;20088;-65
2021/12/15 05:45:39;;;;;;;39.90;14.70;;;;;;;8.01;100.00;101588.94;4985785;28;20076;-65
2021/12/15 05:48:07;;;;;;;43.67;14.70;;;;;;;8.03;100.00;101596.03;4990559;28;20026;-65
2021/12/15 05:50:34;;;;;;;36.78;13.15;;;;;;;8.02;100.00;101596.88;4988285;28;20026;-65
2021/12/15 05:53:00;;;;;;;35.08;14.13;;;;;;;8.04;100.00;101595.13;4991045;28;20494;-65
2021/12/15 05:55:26;;;;;;;31.23;11.98;;;;;;;8.05;100.00;101588.94;4993166;28;20482;-65
2021/12/15 05:57:52;;;;;;;39.10;12.77;;;;;;;8.05;100.00;101591.59;4993894;28;20041;-65
2021/12/15 06:00:21;;;;;;;35.78;13.25;;;;;;;8.07;100.00;101595.13;4985870;28;20483;-65
2021/12/15 06:02:46;;;;;;;38.95;13.38;;;;;;;8.09;100.00;101597.78;4986169;28;20084;-65
2021/12/15 06:05:13;;;;;;;41.53;12.63;;;;;;;8.18;100.00;101599.59;4994477;28;20112;-65
2021/12/15 06:07:39;;;;;;;42.15;15.65;;;;;;;8.22;100.00;101604.03;4994806;28;20486;-65
2021/12/15 06:10:08;;;;;;;34.30;12.88;;;;;;;8.11;100.00;101600.44;4990970;28;20137;-65
2021/12/15 06:12:34;;;;;;;46.47;14.25;;;;;;;8.07;100.00;101599.56;4988823;28;20026;-65
2021/12/15 06:14:59;;;;;;;43.72;13.45;;;;;;;8.03;100.00;101603.97;4994102;28;20670;-65
2021/12/15 06:17:26;;;;;;;42.47;14.23;;;;;;;8.10;100.00;101606.63;4995295;28;20037;-65
2021/12/15 06:19:55;;;;;;;33.67;11.88;;;;;;;8.09;100.00;101610.19;4987125;28;20411;-65
2021/12/15 06:22:25;;;;;;;31.23;12.25;;;;;;;8.11;100.00;101605.75;4979142;28;20121;-65
2021/12/15 06:24:53;;;;;;;37.47;12.60;;;;;;;7.81;100.00;101615.38;4976504;28;20034;-65
2021/12/15 06:27:20;;;;;;;40.55;12.43;;;;;;;7.86;100.00;101620.66;4988367;28;20033;-65
2021/12/15 06:29:50;;;;;;;41.58;13.93;;;;;;;7.96;100.00;101618.06;4993916;28;20018;-65
2021/12/15 06:32:16;;;;;;;40.72;13.38;;;;;;;8.01;100.00;101616.31;4997202;28;20576;-65
2021/12/15 06:34:42;;;;;;;36.72;13.05;;;;;;;8.00;100.00;101613.69;4991007;28;20033;-65
2021/12/15 06:37:09;;;;;;;39.05;12.68;;;;;;;8.06;100.00;101613.69;4993904;28;20026;-65
2021/12/15 06:39:35;;;;;;;44.67;14.40;;;;;;;7.94;100.00;101603.94;4996191;28;20398;-65
2021/12/15 06:42:00;;;;;;;31.20;12.80;;;;;;;8.01;100.00;101624.28;4994518;28;20026;-65
2021/12/15 06:44:26;;;;;;;37.83;14.65;;;;;;;8.04;100.00;101621.63;4983805;28;20037;-65
2021/12/15 07:00:10;;;;;;;33.88;13.82;;;;;;;8.00;100.00;101633.13;4993864;28;20503;-65
2021/12/15 07:02:35;;;;;;;33.92;12.98;;;;;;;7.98;100.00;101626.91;4984417;28;20030;-65
2021/12/15 07:05:01;;;;;;;34.92;13.32;;;;;;;8.04;100.00;101637.53;4993472;28;20065;-65
2021/12/15 07:07:26;;;;;;;40.35;13.55;;;;;;;8.09;100.00;101644.63;4993160;28;20026;-65
2021/12/15 07:09:52;;;;;;;38.40;14.15;;;;;;;8.07;100.00;101637.53;4996237;28;20106;-65
2021/12/15 07:12:17;;;;;;;38.70;12.55;;;;;;;8.07;100.00;101636.66;4983560;28;20527;-65
2021/12/15 07:14:43;;;;;;;32.92;14.18;;;;;;;8.08;100.00;101643.72;4993227;28;20073;-65
2021/12/15 07:17:09;;;;;;;35.08;12.05;;;;;;;8.07;100.00;101643.72;4995785;28;20098;-65
2021/12/15 07:19:51;;;;;;;39.97;12.63;;;;;;;8.07;100.00;101647.28;4993859;28;20474;-65
2021/12/15 07:22:30;;;;;;;34.63;13.05;;;;;;;8.10;100.00;101651.69;4984953;28;20027;-65
2021/12/15 07:24:57;;;;;;;32.80;12.90;;;;;;;8.04;100.00;101648.13;4990226;28;20100;-65
2021/12/15 07:27:23;;;;;;;33.72;14.35;;;;;;;8.11;100.00;101658.75;4990880;28;20065;-65
2021/12/15 07:29:49;;;;;;;40.13;14.88;;;;;;;8.15;100.00;101661.44;4984995;28;20446;-65
2021/12/15 07:32:15;;;;;;;31.70;13.43;;;;;;;8.09;100.00;101668.47;4992752;28;20030;-65
2021/12/15 07:34:40;;;;;;;30.55;14.40;;;;;;;8.13;100.00;101665.84;4993440;28;20023;-65
2021/12/15 07:37:06;;;;;;;37.97;13.95;;;;;;;8.12;100.00;101665.84;4991701;28;20042;-65
2021/12/15 07:39:32;;;;;;;37.13;15.32;;;;;;;8.13;100.00;101668.47;4985047;28;20034;-65
2021/12/15 07:42:10;;;;;;;32.58;13.57;;;;;;;8.07;100.00;101669.34;4975366;28;20049;-65
2021/12/15 07:44:36;;;;;;;35.72;14.60;;;;;;;8.15;100.00;101676.44;4993213;28;20437;-65
2021/12/15 07:47:05;;;;;;;41.53;15.20;;;;;;;8.13;100.00;101672.88;4992076;28;20041;-65
2021/12/15 07:49:30;;;;;;;39.65;15.20;;;;;;;8.14;100.00;101685.28;4993380;28;20450;-65
2021/12/15 07:52:01;;;;;;;33.35;15.38;;;;;;;8.07;100.00;101669.34;4983368;28;20066;-65
2021/12/15 07:54:28;;;;;;;34.17;15.10;;;;;;;8.17;100.00;101679.97;4976159;28;20041;-65
2021/12/15 07:56:54;;;;;;;35.78;12.45;;;;;;;8.20;100.00;101690.59;4989351;28;20486;-65
2021/12/15 07:59:19;;;;;;;39.42;12.63;;;;;;;8.01;100.00;101685.22;4986672;28;20030;-65
2021/12/15 08:01:45;;;;;;;34.58;11.73;;;;;;;8.17;100.00;101693.25;4992188;28;20022;-65
2021/12/15 08:04:11;;;;;;;25.75;11.93;;;;;;;8.09;100.00;101695.84;4992971;28;20134;-65
2021/12/15 08:06:36;;;;;;;36.28;12.30;;;;;;;8.18;100.00;101684.38;4985215;28;20332;-65
2021/12/15 08:09:03;;;;;;;36.83;14.45;;;;;;;8.19;100.00;101700.28;4977059;28;20035;-65
2021/12/15 08:11:29;;;;;;;35.85;13.00;;;;;;;8.21;100.00;101697.66;4972838;28;20038;-65
2021/12/15 08:13:55;;;;;;;40.92;14.32;;;;;;;8.25;100.00;101695.06;4983240;28;20030;-65
2021/12/15 08:16:20;;;;;;;31.23;11.25;;;;;;;8.30;100.00;101703.03;4991544;28;20112;-65
2021/12/15 08:18:47;;;;;;;29.77;12.35;;;;;;;8.21;100.00;101693.25;4992048;28;20026;-65
2021/12/15 08:21:14;;;;;;;36.83;12.70;;;;;;;8.27;100.00;101705.69;4987800;28;20030;-65
2021/12/15 08:23:40;;;;;;;41.25;12.45;;;;;;;8.28;100.00;101710.97;4977739;28;20057;-65
2021/12/15 08:26:06;;;;;;;33.83;13.27;;;;;;;8.29;100.00;101709.19;4972329;28;20110;-65
2021/12/15 08:28:32;;;;;;;36.78;12.60;;;;;;;8.31;100.00;101715.41;4975497;28;20034;-65
2021/12/15 08:30:59;;;;;;;28.10;12.43;;;;;;;8.20;100.00;101717.09;4990817;28;20022;-65
2021/12/15 08:33:25;;;;;;;34.05;11.48;;;;;;;8.04;100.00;101719.69;4991764;28;20022;-65
2021/12/15 08:35:58;;;;;;;31.42;12.55;;;;;;;8.26;100.00;101725.09;4993426;28;20022;-65
2021/12/15 08:38:25;;;;;;;32.13;13.98;;;;;;;8.36;100.00;101729.56;4986445;28;20022;-65
2021/12/15 08:40:51;;;;;;;39.33;14.68;;;;;;;8.43;100.00;101726.06;4972343;28;20030;-66
2021/12/15 08:43:19;;;;;;;35.13;12.70;;;;;;;8.45;100.00;101714.56;4972394;28;20487;-65
2021/12/15 08:45:50;;;;;;;32.13;12.15;;;;;;;8.47;100.00;101728.72;4972868;28;20100;-65
2021/12/15 08:48:16;;;;;;;35.00;13.27;;;;;;;8.50;100.00;101727.84;4983195;28;20026;-65
2021/12/15 08:50:43;;;;;;;37.30;15.18;;;;;;;8.53;100.00;101730.50;4990871;28;20022;-65
2021/12/15 08:53:11;;;;;;;38.40;14.00;;;;;;;8.52;100.00;101721.66;4989102;28;20033;-65
2021/12/15 08:55:39;;;;;;;39.65;17.13;;;;;;;8.66;100.00;101729.66;4989000;28;20034;-65
2021/12/15 08:58:05;;;;;;;39.33;15.85;;;;;;;8.68;100.00;101728.75;4991451;28;20038;-63
2021/12/15 09:00:31;;;;;;;39.53;16.33;;;;;;;8.69;100.00;101722.59;4989341;28;20107;-63
2021/12/15 09:02:57;;;;;;;44.67;17.20;;;;;;;8.72;100.00;101725.25;4988290;28;20119;-63
2021/12/15 09:05:24;;;;;;;36.95;16.52;;;;;;;8.75;100.00;101724.34;4970927;28;20042;-63
2021/12/15 09:07:52;;;;;;;40.03;15.80;;;;;;;8.79;100.00;101731.44;4976144;28;20035;-63
2021/12/15 09:10:20;;;;;;;42.92;15.15;;;;;;;8.78;100.00;101724.38;4991746;28;20030;-63
2021/12/15 09:12:45;;;;;;;40.70;15.23;;;;;;;8.58;100.00;101721.66;4991032;28;20034;-63
2021/12/15 09:15:12;;;;;;;34.22;14.55;;;;;;;8.62;100.00;101735.81;4991640;28;20056;-63
2021/12/15 09:17:38;;;;;;;42.40;15.23;;;;;;;8.88;100.00;101734.13;4990394;28;20471;-63
2021/12/15 09:20:06;;;;;;;35.65;15.05;;;;;;;8.87;100.00;101729.69;4993648;28;20042;-64
2021/12/15 09:22:32;;;;;;;38.03;14.82;;;;;;;8.92;100.00;101734.13;4990529;28;20473;-63
2021/12/15 09:24:58;;;;;;;40.83;14.48;;;;;;;8.92;100.00;101734.13;4982404;28;20105;-63
2021/12/15 09:27:23;;;;;;;42.88;15.98;;;;;;;8.72;100.00;101734.97;4990958;28;20125;-63
2021/12/15 09:29:49;;;;;;;36.88;15.02;;;;;;;8.56;100.00;101736.72;4981952;28;20026;-63
2021/12/15 09:32:15;;;;;;;31.55;14.20;;;;;;;8.52;100.00;101741.97;4978875;28;20110;-63
2021/12/15 09:34:40;;;;;;;39.80;14.68;;;;;;;8.80;100.00;101734.09;4977744;28;20048;-63
2021/12/15 09:37:06;;;;;;;35.88;14.23;;;;;;;8.93;100.00;101741.19;4987217;28;20050;-63
2021/12/15 09:39:31;;;;;;;31.05;12.70;;;;;;;8.73;100.00;101726.16;4994601;28;20049;-64
2021/12/15 09:41:59;;;;;;;36.47;14.98;;;;;;;9.03;100.00;101742.09;4991261;28;20045;-64
2021/12/15 09:44:27;;;;;;;40.00;14.90;;;;;;;9.24;100.00;101743.00;4994384;28;20077;-64
2021/12/15 10:03:33;;;;;;;34.53;14.27;;;;;;;9.46;98.03;101735.91;4994505;28;20089;-64
2021/12/15 10:06:20;;;;;;;36.58;14.65;;;;;;;9.45;96.91;101736.81;4988534;28;20110;-64
2021/12/15 10:11:57;;;;;;;36.60;13.32;;;;;;;9.42;98.36;101731.50;4986120;28;20413;-64
2021/12/15 10:19:55;;;;;;;33.90;14.40;;;;;;;9.56;98.79;101734.13;4992488;28;20064;-64
2021/12/15 10:22:33;;;;;;;36.60;14.48;;;;;;;9.61;98.64;101735.91;4991552;28;20031;-64
2021/12/15 10:25:05;;;;;;;36.50;16.48;;;;;;;9.68;98.04;101729.69;4987597;28;20042;-64
2021/12/15 10:27:49;;;;;;;36.92;14.65;;;;;;;9.74;97.69;101729.69;4973992;28;20019;-64
2021/12/15 10:30:24;;;;;;;31.58;13.70;;;;;;;9.80;97.86;101729.66;4991129;28;20108;-64
2021/12/15 10:32:54;;;;;;;32.42;14.15;;;;;;;9.97;96.37;101721.63;5013145;28;20061;-64
2021/12/15 10:35:40;;;;;;;35.50;13.85;;;;;;;9.97;95.97;101722.53;5014025;28;20534;-64
2021/12/15 10:38:44;;;;;;;35.58;13.80;;;;;;;9.98;96.50;101724.28;4999681;28;20030;-64
2021/12/15 10:41:28;;;;;;;37.70;15.13;;;;;;;9.98;96.10;101712.78;4993976;28;20042;-64
2021/12/15 10:44:14;;;;;;;40.75;16.48;;;;;;;10.15;96.44;101708.31;4989299;28;20065;-64
2021/12/15 10:46:47;;;;;;;30.15;12.32;;;;;;;10.23;95.10;101699.41;4978713;28;20411;-64
2021/12/15 10:49:22;;;;;;;32.30;12.98;;;;;;;10.24;94.51;101700.31;4973512;28;20407;-64
2021/12/15 10:51:51;;;;;;;35.83;14.25;;;;;;;10.27;93.87;101697.63;4975165;28;20023;-64
2021/12/15 10:54:23;;;;;;;29.40;13.13;;;;;;;10.20;93.16;101693.22;4979715;28;20057;-64
2021/12/15 10:57:20;;;;;;;34.78;13.45;;;;;;;10.14;93.75;101699.47;4973643;28;20026;-64
2021/12/15 10:59:51;;;;;;;31.02;12.73;;;;;;;10.23;93.62;101704.75;4984786;28;20113;-64
2021/12/15 11:02:23;;;;;;;35.00;14.05;;;;;;;10.22;93.49;101695.00;5013080;28;20045;-64
2021/12/15 11:05:07;;;;;;;29.27;12.57;;;;;;;10.20;93.85;101691.47;5003892;28;20073;-64
2021/12/15 11:07:36;;;;;;;37.00;13.90;;;;;;;10.20;93.23;101699.44;4989524;28;20036;-64
2021/12/15 11:10:15;;;;;;;32.15;14.27;;;;;;;10.21;93.25;101693.22;4992605;28;20117;-64
2021/12/15 11:12:44;;;;;;;39.05;14.40;;;;;;;10.23;93.40;101694.09;4994198;28;20033;-64
2021/12/15 11:15:26;;;;;;;28.88;13.32;;;;;;;10.25;93.78;101691.44;4991579;28;20057;-64
2021/12/15 11:18:01;;;;;;;36.47;13.50;;;;;;;10.38;93.48;101685.16;4992902;28;20034;-64
2021/12/15 11:20:46;;;;;;;35.15;13.05;;;;;;;10.50;92.09;101680.69;4989382;28;20034;-64
2021/12/15 11:23:15;;;;;;;31.20;11.43;;;;;;;10.47;92.19;101678.03;4977367;28;20043;-64
2021/12/15 11:26:02;;;;;;;34.13;12.55;;;;;;;10.42;92.20;101671.88;4974364;28;20045;-64
2021/12/15 11:28:38;;;;;;;32.55;13.98;;;;;;;10.48;91.46;101677.13;4981710;28;20045;-64
2021/12/15 11:31:20;;;;;;;31.35;11.85;;;;;;;10.47;91.60;101675.38;4973034;28;20138;-64
2021/12/15 11:33:48;;;;;;;30.13;11.68;;;;;;;10.40;91.51;101670.97;4986404;28;20030;-64
2021/12/15 11:36:32;;;;;;;28.83;12.35;;;;;;;10.43;92.44;101670.06;4972923;28;20360;-64
2021/12/15 11:39:09;;;;;;;33.03;14.23;;;;;;;10.46;91.53;101659.44;4982261;28;20039;-64
2021/12/15 11:41:41;;;;;;;30.70;12.27;;;;;;;10.40;92.08;101655.03;4973296;28;20035;-64
2021/12/15 11:44:12;;;;;;;36.38;12.55;;;;;;;10.44;91.94;101656.75;4973266;28;20515;-64
2021/12/15 11:46:42;;;;;;;29.42;11.90;;;;;;;10.50;93.35;101655.84;4974549;28;20035;-64
2021/12/15 11:49:14;;;;;;;31.23;12.93;;;;;;;10.56;92.53;101656.69;4991280;28;20030;-64
2021/12/15 11:51:49;;;;;;;33.47;13.80;;;;;;;10.59;92.66;101656.66;4992268;28;20026;-64
2021/12/15 11:54:26;;;;;;;36.42;11.38;;;;;;;10.63;92.08;101647.78;4992155;28;20026;-64
2021/12/15 11:57:14;;;;;;;36.10;13.38;;;;;;;10.62;92.71;101646.00;4989545;28;20042;-64
2021/12/15 11:59:43;;;;;;;35.30;11.88;;;;;;;10.72;91.95;101637.97;4973006;28;20037;-64
2021/12/15 12:02:28;;;;;;;40.25;13.02;;;;;;;10.73;91.72;101639.72;4976906;28;20446;-64
2021/12/15 12:04:55;;;;;;;35.90;13.82;;;;;;;10.78;92.27;101635.22;4992857;28;20034;-65
2021/12/15 12:07:34;;;;;;;32.58;12.35;;;;;;;10.78;91.03;101633.47;4992455;28;20077;-64
2021/12/15 12:10:20;;;;;;;31.42;13.63;;;;;;;10.81;91.19;101632.56;4994288;28;20422;-64
2021/12/15 12:12:55;;;;;;;33.03;11.55;;;;;;;10.84;90.87;101641.41;4982785;28;20022;-65
2021/12/15 12:15:28;;;;;;;37.97;12.73;;;;;;;10.84;90.09;101635.22;5129119;27;20383;-64
2021/12/15 12:18:00;;;;;;;30.15;12.38;;;;;;;10.86;90.79;101634.28;5129603;27;20042;-64
2021/12/15 12:20:38;;;;;;;30.90;12.40;;;;;;;10.89;90.98;101633.41;5124942;27;20069;-64
2021/12/15 12:23:07;;;;;;;32.78;13.02;;;;;;;10.87;89.32;101609.44;5122276;27;20072;-64
2021/12/15 12:25:42;;;;;;;29.48;12.07;;;;;;;10.94;88.87;101624.44;5128346;27;20076;-64
2021/12/15 12:28:18;;;;;;;36.08;12.57;;;;;;;10.93;88.64;101620.03;5128349;27;20514;-64